Time;durP1;ratioP1;P1;durP2;ratioP2;P2;SDS_P1;SDS_P2;PMS_P1;PMS_P2;Temp;Humidity;BMP_temperature;BMP_pressure;BME280_temperature;BME280_humidity;BME280_pressure;Samples;Min_cycle;Max_cycle;Signal;HPM_P1;HPM_P2
2023/12/21 00:01:00;;;;;;;257.73;84.85;;;;;;;-0.65;92.40;94606.28;5076955;28;20029;-84
2023/12/21 00:03:26;;;;;;;252.60;87.20;;;;;;;-0.56;92.10;94598.97;5077705;28;20036;-86
2023/12/21 00:05:51;;;;;;;241.45;85.90;;;;;;;-0.34;91.70;94644.38;5058387;28;20056;-81
2023/12/21 00:08:17;;;;;;;258.35;88.43;;;;;;;-0.87;91.34;94586.91;5057582;28;20489;-81
2023/12/21 00:10:43;;;;;;;238.23;84.65;;;;;;;-0.86;91.76;94609.31;5076217;28;20036;-81
2023/12/21 00:13:08;;;;;;;253.05;84.20;;;;;;;-1.13;91.79;94533.31;5058000;28;20476;-81
2023/12/21 00:15:34;;;;;;;233.13;80.85;;;;;;;-0.53;91.62;94622.75;5058075;28;20047;-81
2023/12/21 00:17:59;;;;;;;234.63;78.82;;;;;;;-0.18;91.43;94682.09;5075601;28;20029;-81
2023/12/21 00:20:25;;;;;;;232.50;80.70;;;;;;;-0.25;90.90;94679.56;5058172;28;20028;-81
2023/12/21 00:22:50;;;;;;;218.07;78.82;;;;;;;-0.40;90.59;94676.53;5057485;28;20032;-81
2023/12/21 00:25:16;;;;;;;217.43;75.13;;;;;;;-1.40;90.42;94532.00;5075944;28;20107;-81
2023/12/21 00:27:42;;;;;;;220.52;78.68;;;;;;;-0.62;89.82;94662.34;5057834;28;20502;-81
2023/12/21 00:30:08;;;;;;;215.27;76.28;;;;;;;-0.71;89.72;94656.63;5057879;28;20051;-81
2023/12/21 00:32:33;;;;;;;202.85;74.15;;;;;;;-1.48;88.74;94556.47;5073886;28;20043;-81
2023/12/21 00:34:59;;;;;;;202.02;72.50;;;;;;;-1.31;88.65;94604.34;5073941;28;20028;-81
2023/12/21 00:37:25;;;;;;;184.73;69.30;;;;;;;-0.80;88.63;94689.94;5075875;28;20036;-81
2023/12/21 00:39:50;;;;;;;183.23;64.95;;;;;;;-1.40;88.69;94636.03;5074061;28;20090;-82
2023/12/21 00:42:16;;;;;;;176.18;65.18;;;;;;;-1.64;88.95;94604.63;5074024;28;20036;-81
2023/12/21 00:44:42;;;;;;;166.75;63.22;;;;;;;-1.08;89.94;94705.22;5075902;28;20487;-81
2023/12/21 00:47:08;;;;;;;180.55;68.93;;;;;;;-2.59;89.88;94475.00;5074564;28;20036;-81
2023/12/21 00:49:34;;;;;;;164.25;63.10;;;;;;;-2.41;89.84;94519.22;5074138;28;20017;-82
2023/12/21 00:52:00;;;;;;;164.77;63.58;;;;;;;-1.30;89.92;94675.38;5075629;28;20047;-81
2023/12/21 00:54:25;;;;;;;166.73;63.20;;;;;;;-1.04;89.63;94718.59;5075284;28;20032;-81
2023/12/21 00:56:51;;;;;;;169.95;68.38;;;;;;;-1.66;89.45;94626.63;5082719;28;20056;-81
2023/12/21 00:59:16;;;;;;;166.82;64.18;;;;;;;-0.97;89.61;94720.13;5077268;28;20040;-81
2023/12/21 01:01:42;;;;;;;183.55;65.13;;;;;;;-1.89;89.77;94592.59;5077292;28;20128;-81
2023/12/21 01:04:07;;;;;;;172.07;65.30;;;;;;;-1.46;89.86;94655.91;5092983;28;20469;-82
2023/12/21 01:06:36;;;;;;;192.60;66.70;;;;;;;-2.18;89.34;94537.63;5090707;28;20498;-81
2023/12/21 01:09:03;;;;;;;176.48;63.50;;;;;;;-0.86;89.65;94723.88;5077095;28;20043;-81
2023/12/21 01:11:29;;;;;;;183.82;65.00;;;;;;;-0.87;89.28;94725.66;5075283;28;20123;-81
2023/12/21 01:13:54;;;;;;;162.82;60.30;;;;;;;-1.08;89.01;94681.00;5077782;28;20060;-82
2023/12/21 01:16:20;;;;;;;150.43;59.15;;;;;;;-1.43;89.00;94639.84;5100755;28;20149;-83
2023/12/21 01:18:46;;;;;;;157.02;59.80;;;;;;;-1.15;89.22;94670.66;5083434;28;20410;-82
2023/12/21 01:21:12;;;;;;;148.98;58.58;;;;;;;-1.44;88.76;94629.66;5083119;28;20058;-81
2023/12/21 01:23:37;;;;;;;147.40;57.10;;;;;;;-1.12;89.24;94670.22;5084129;28;20035;-82
2023/12/21 01:26:03;;;;;;;146.85;56.42;;;;;;;-1.19;88.81;94648.66;5083059;28;20043;-82
2023/12/21 01:28:29;;;;;;;143.93;56.15;;;;;;;-1.49;87.88;94609.50;5083604;28;20043;-82
2023/12/21 01:30:54;;;;;;;133.00;52.03;;;;;;;-1.02;88.18;94672.34;5082147;28;20032;-82
2023/12/21 01:33:20;;;;;;;144.05;54.03;;;;;;;-0.95;88.16;94671.28;5089115;28;20392;-82
2023/12/21 01:35:45;;;;;;;128.95;52.80;;;;;;;-0.76;87.89;94690.31;5084668;28;20040;-82
2023/12/21 01:38:11;;;;;;;135.35;53.53;;;;;;;-0.73;87.79;94694.28;5083703;28;20131;-82
2023/12/21 01:40:36;;;;;;;131.05;51.30;;;;;;;-0.76;87.66;94699.94;5078011;28;20036;-82
2023/12/21 01:43:02;;;;;;;135.07;55.20;;;;;;;-0.76;88.44;94699.94;5101518;28;20096;-82
2023/12/21 01:45:27;;;;;;;125.32;50.42;;;;;;;-0.74;88.97;94700.50;5082781;28;20047;-81
2023/12/21 01:47:55;;;;;;;126.88;54.05;;;;;;;-1.03;90.26;94648.13;5082300;28;20494;-81
2023/12/21 01:50:21;;;;;;;126.90;52.72;;;;;;;-1.19;91.07;94610.44;5081291;28;20060;-82
2023/12/21 01:52:47;;;;;;;131.52;54.75;;;;;;;-0.72;90.28;94693.28;5099132;28;20067;-82
2023/12/21 01:55:15;;;;;;;125.32;54.28;;;;;;;-0.94;90.95;94657.25;5083527;28;20044;-81
2023/12/21 01:57:41;;;;;;;132.63;52.08;;;;;;;-0.70;91.12;94694.69;5101984;28;20051;-81
2023/12/21 02:00:08;;;;;;;124.60;54.25;;;;;;;-0.94;91.79;94646.03;5083475;28;20070;-82
2023/12/21 02:02:33;;;;;;;132.55;52.28;;;;;;;-0.54;92.24;94688.91;5098563;28;20032;-81
2023/12/21 02:04:59;;;;;;;136.35;54.75;;;;;;;-0.49;92.82;94693.47;5084252;28;20035;-81
2023/12/21 02:07:24;;;;;;;131.43;55.38;;;;;;;-0.59;93.00;94654.88;5098949;28;20024;-82
2023/12/21 02:09:50;;;;;;;132.98;54.15;;;;;;;-0.94;92.80;94588.78;5082912;28;20020;-81
2023/12/21 02:12:15;;;;;;;120.45;52.53;;;;;;;-0.56;92.86;94648.44;5099559;28;20035;-80
2023/12/21 02:14:41;;;;;;;117.25;52.90;;;;;;;-0.99;93.10;94554.81;5097467;28;20052;-81
2023/12/21 02:17:12;;;;;;;122.72;50.55;;;;;;;-0.24;93.68;94688.19;5098274;28;20039;-81
2023/12/21 02:19:38;;;;;;;106.43;46.42;;;;;;;-0.01;94.99;94686.50;5096914;28;20032;-82
2023/12/21 02:22:06;;;;;;;94.28;45.20;;;;;;;-0.42;95.69;94613.41;5078956;28;20097;-82
2023/12/21 02:24:32;;;;;;;99.65;46.97;;;;;;;0.21;96.86;94692.03;5080206;28;20093;-83
2023/12/21 02:27:00;;;;;;;100.25;46.08;;;;;;;-0.09;97.40;94629.44;5075865;28;20028;-84
2023/12/21 02:29:25;;;;;;;111.15;50.30;;;;;;;0.01;97.54;94621.06;5075950;28;20028;-84
2023/12/21 02:31:51;;;;;;;111.53;51.55;;;;;;;0.36;97.94;94679.38;5094308;28;20036;-83
2023/12/21 02:34:16;;;;;;;107.80;49.10;;;;;;;0.53;97.76;94692.59;5076340;28;20036;-81
2023/12/21 02:36:42;;;;;;;107.82;49.58;;;;;;;0.48;97.21;94674.19;5093650;28;20506;-80
2023/12/21 02:39:07;;;;;;;117.35;51.08;;;;;;;0.59;97.10;94683.88;5075014;28;20031;-82
2023/12/21 02:41:33;;;;;;;112.57;50.00;;;;;;;0.31;96.72;94636.69;5093466;28;20036;-80
2023/12/21 02:43:58;;;;;;;100.93;49.13;;;;;;;0.51;96.67;94670.34;5075260;28;20028;-81
2023/12/21 02:46:26;;;;;;;104.85;46.58;;;;;;;0.57;96.68;94677.25;5075341;28;20040;-81
2023/12/21 02:48:52;;;;;;;99.57;46.17;;;;;;;0.02;96.39;94596.59;5075612;28;20560;-81
2023/12/21 02:51:18;;;;;;;103.25;46.40;;;;;;;0.03;96.27;94585.16;5074973;28;20036;-80
2023/12/21 02:53:43;;;;;;;98.85;44.15;;;;;;;0.85;96.41;94706.13;5075183;28;20592;-81
2023/12/21 02:56:09;;;;;;;99.95;44.35;;;;;;;0.89;96.05;94707.28;5093373;28;20055;-81
2023/12/21 02:58:36;;;;;;;98.18;44.38;;;;;;;0.27;95.55;94612.88;5074961;28;20076;-80
2023/12/21 03:01:02;;;;;;;85.75;41.95;;;;;;;0.97;95.74;94716.63;5075300;28;20123;-81
2023/12/21 03:03:27;;;;;;;88.43;42.30;;;;;;;0.45;95.55;94632.09;5075326;28;20532;-81
2023/12/21 03:05:53;;;;;;;92.60;42.75;;;;;;;0.93;95.27;94690.16;5075292;28;20074;-81
2023/12/21 03:08:18;;;;;;;90.70;42.63;;;;;;;1.05;94.86;94709.25;5075359;28;20060;-81
2023/12/21 03:10:44;;;;;;;83.53;41.05;;;;;;;0.61;94.93;94628.84;5075166;28;20024;-81
2023/12/21 03:13:09;;;;;;;88.10;41.10;;;;;;;0.56;94.36;94623.50;5075418;28;20036;-80
2023/12/21 03:15:35;;;;;;;80.38;38.95;;;;;;;1.17;94.39;94717.88;5075808;28;20043;-81
2023/12/21 03:18:00;;;;;;;90.03;42.50;;;;;;;-0.10;93.42;94505.34;5075902;28;20032;-81
2023/12/21 03:20:26;;;;;;;75.93;36.55;;;;;;;1.30;93.31;94711.63;5074926;28;20042;-81
2023/12/21 03:22:52;;;;;;;82.63;39.22;;;;;;;1.17;93.15;94698.81;5074957;28;20043;-82
2023/12/21 03:25:17;;;;;;;82.57;38.60;;;;;;;0.76;93.02;94663.91;5075507;28;20038;-81
2023/12/21 03:27:43;;;;;;;82.28;40.13;;;;;;;1.20;93.34;94705.41;5074156;28;20069;-81
2023/12/21 03:30:10;;;;;;;82.10;39.17;;;;;;;0.47;92.82;94576.06;5074787;28;20169;-81
2023/12/21 03:32:36;;;;;;;83.88;39.28;;;;;;;1.25;92.75;94716.75;5075500;28;20043;-82
2023/12/21 03:35:03;;;;;;;88.90;37.67;;;;;;;0.79;92.58;94636.56;5075304;28;20036;-81
2023/12/21 03:37:29;;;;;;;73.32;34.40;;;;;;;1.19;92.66;94694.16;5075119;28;20035;-81
2023/12/21 03:39:58;;;;;;;78.47;37.67;;;;;;;1.42;92.50;94714.25;5093317;28;20032;-80
2023/12/21 03:42:24;;;;;;;76.35;35.92;;;;;;;1.02;92.20;94646.22;5092772;28;20346;-81
2023/12/21 03:44:49;;;;;;;67.88;33.80;;;;;;;0.73;91.93;94611.38;5079033;22;20109;-88
2023/12/21 03:47:15;;;;;;;71.07;33.50;;;;;;;1.49;92.02;94723.56;5033514;28;20034;-88
2023/12/21 03:49:41;;;;;;;72.25;32.90;;;;;;;0.52;91.25;94588.44;5036321;28;20085;-88
2023/12/21 03:52:07;;;;;;;60.50;30.52;;;;;;;1.16;91.12;94689.38;5036687;28;20113;-87
2023/12/21 03:54:36;;;;;;;70.30;33.05;;;;;;;1.09;90.77;94649.53;5036120;28;20049;-87
2023/12/21 03:57:01;;;;;;;67.30;33.45;;;;;;;1.36;90.67;94681.22;5037128;28;20029;-88
2023/12/21 03:59:27;;;;;;;68.43;32.00;;;;;;;1.48;90.68;94689.81;5036143;28;20055;-88
2023/12/21 04:01:53;;;;;;;64.53;31.45;;;;;;;1.72;90.41;94735.84;5035799;28;20037;-87
2023/12/21 04:04:19;;;;;;;62.47;31.05;;;;;;;0.15;90.55;94499.16;5053259;28;20049;-90
2023/12/21 04:06:44;;;;;;;67.95;31.83;;;;;;;-1.17;90.67;94304.00;5036109;28;20038;-88
2023/12/21 04:09:10;;;;;;;64.60;30.38;;;;;;;1.63;91.08;94721.50;5052657;28;20024;-89
2023/12/21 04:11:36;;;;;;;58.83;27.00;;;;;;;0.66;90.54;94582.78;5053284;28;20037;-88
2023/12/21 04:14:01;;;;;;;54.05;27.63;;;;;;;1.35;90.34;94677.81;5054713;28;20037;-89
2023/12/21 04:16:27;;;;;;;58.15;27.30;;;;;;;1.49;89.85;94692.22;5052139;28;20061;-90
2023/12/21 04:18:52;;;;;;;55.92;26.13;;;;;;;1.77;89.75;94722.06;5037762;28;20014;-89
2023/12/21 04:21:18;;;;;;;53.08;24.05;;;;;;;1.75;89.68;94721.53;5053595;28;20089;-91
2023/12/21 04:23:45;;;;;;;54.13;24.58;;;;;;;1.80;88.91;94722.41;5029261;28;20119;-89
2023/12/21 04:26:20;;;;;;;58.92;25.10;;;;;;;0.35;89.08;94492.59;5036437;28;20037;-88
2023/12/21 04:28:46;;;;;;;49.58;22.33;;;;;;;1.49;88.67;94662.69;5081567;22;20068;-83
2023/12/21 04:31:20;;;;;;;37.35;18.13;;;;;;;1.38;88.26;94663.47;5035557;28;20038;-82
2023/12/21 04:33:48;;;;;;;40.92;21.30;;;;;;;1.63;88.03;94676.28;5036093;28;20187;-82
2023/12/21 04:36:14;;;;;;;41.33;19.73;;;;;;;1.72;88.36;94708.91;5034657;28;20476;-81
2023/12/21 04:38:40;;;;;;;40.45;20.63;;;;;;;1.86;88.36;94739.00;5038588;28;20091;-82
2023/12/21 04:41:05;;;;;;;41.97;20.50;;;;;;;1.87;88.24;94743.19;5039564;28;20033;-82
2023/12/21 04:43:31;;;;;;;35.58;18.08;;;;;;;1.90;87.75;94740.94;5038281;28;20087;-84
2023/12/21 04:45:57;;;;;;;31.55;16.73;;;;;;;1.29;87.67;94629.09;5036751;28;20416;-84
2023/12/21 04:48:23;;;;;;;38.60;18.35;;;;;;;1.25;87.75;94633.16;5036937;28;20565;-84
2023/12/21 04:50:48;;;;;;;36.13;18.25;;;;;;;1.44;87.43;94655.53;5055007;28;20557;-84
2023/12/21 04:53:14;;;;;;;37.83;18.25;;;;;;;1.09;87.59;94603.31;5054474;28;20033;-84
2023/12/21 04:55:39;;;;;;;32.08;16.52;;;;;;;1.48;87.38;94674.94;5033796;28;20491;-83
2023/12/21 04:58:05;;;;;;;35.50;17.85;;;;;;;2.00;87.22;94736.91;5036954;28;20076;-84
2023/12/21 05:00:30;;;;;;;31.65;17.42;;;;;;;2.02;87.14;94730.44;5042150;28;20430;-84
2023/12/21 05:02:56;;;;;;;34.53;17.23;;;;;;;1.91;86.64;94718.97;5037577;28;20036;-84
2023/12/21 05:05:22;;;;;;;34.67;16.17;;;;;;;1.85;86.68;94714.66;5046691;28;20021;-84
2023/12/21 05:07:48;;;;;;;31.52;15.48;;;;;;;2.07;86.18;94738.38;5048021;28;20075;-84
2023/12/21 05:10:13;;;;;;;32.10;15.00;;;;;;;1.62;85.77;94674.69;5052231;28;20064;-84
2023/12/21 05:12:39;;;;;;;28.90;14.77;;;;;;;2.06;86.00;94730.78;5049081;28;20328;-84
2023/12/21 05:15:05;;;;;;;34.55;16.30;;;;;;;1.31;85.82;94631.44;5041492;28;20044;-84
2023/12/21 05:17:31;;;;;;;26.95;15.32;;;;;;;1.88;86.16;94721.25;5023665;28;20071;-84
2023/12/21 05:19:57;;;;;;;30.48;14.38;;;;;;;1.31;85.58;94634.06;5032466;28;20240;-85
2023/12/21 05:22:23;;;;;;;26.17;15.05;;;;;;;1.22;85.82;94636.22;5034387;28;20104;-85
2023/12/21 05:24:48;;;;;;;28.80;14.80;;;;;;;1.72;85.63;94716.72;5037407;28;20060;-85
2023/12/21 05:27:14;;;;;;;30.02;14.30;;;;;;;1.82;86.19;94736.06;5042600;28;20039;-86
2023/12/21 05:29:43;;;;;;;30.67;14.40;;;;;;;2.06;85.81;94754.31;5056794;28;20093;-86
2023/12/21 05:32:09;;;;;;;31.35;15.90;;;;;;;1.90;85.61;94740.13;5042183;28;20036;-85
2023/12/21 05:34:35;;;;;;;32.83;15.48;;;;;;;1.24;85.80;94646.44;5025111;28;20412;-84
2023/12/21 05:37:04;;;;;;;30.88;15.75;;;;;;;1.74;85.37;94691.97;5019308;28;20033;-85
2023/12/21 05:39:30;;;;;;;29.45;13.95;;;;;;;1.44;85.14;94670.41;4992797;28;20044;-84
2023/12/21 05:41:55;;;;;;;33.83;14.30;;;;;;;1.22;85.12;94610.09;4997866;28;20043;-84
2023/12/21 05:44:21;;;;;;;29.52;15.32;;;;;;;1.07;85.31;94594.91;5016048;28;20060;-86
2023/12/21 05:46:47;;;;;;;27.75;15.25;;;;;;;1.39;84.84;94663.25;4999186;28;20438;-86
2023/12/21 05:49:12;;;;;;;32.53;16.08;;;;;;;0.75;84.58;94549.31;5014415;28;20368;-85
2023/12/21 05:51:39;;;;;;;31.25;13.63;;;;;;;0.04;84.51;94427.72;5032363;28;20094;-84
2023/12/21 05:54:09;;;;;;;34.75;14.93;;;;;;;1.53;84.95;94667.19;5018932;28;20494;-85
2023/12/21 05:56:38;;;;;;;29.85;14.48;;;;;;;0.52;84.84;94489.31;5017942;28;20098;-85
2023/12/21 05:59:03;;;;;;;27.85;14.63;;;;;;;-0.82;84.62;94283.25;5022071;28;20060;-85
2023/12/21 06:01:29;;;;;;;32.85;15.75;;;;;;;0.55;84.63;94505.28;5025073;28;20032;-85
2023/12/21 06:03:55;;;;;;;31.13;15.52;;;;;;;0.05;84.43;94433.72;5027740;28;20095;-84
2023/12/21 06:06:21;;;;;;;33.30;16.10;;;;;;;0.00;84.68;94455.28;5019804;28;20040;-84
2023/12/21 06:08:47;;;;;;;31.20;15.85;;;;;;;1.70;84.82;94716.16;5030138;28;20064;-87
2023/12/21 06:11:15;;;;;;;30.27;15.45;;;;;;;1.23;85.08;94629.97;5032741;28;20567;-86
2023/12/21 06:13:40;;;;;;;29.40;15.55;;;;;;;-0.51;84.72;94364.69;5008956;28;20029;-84
2023/12/21 06:16:11;;;;;;;36.25;14.95;;;;;;;-0.24;84.49;94402.34;5017788;28;20463;-86
2023/12/21 06:18:38;;;;;;;32.13;15.25;;;;;;;1.88;85.06;94729.09;5023482;28;20060;-84
2023/12/21 06:21:06;;;;;;;37.63;15.68;;;;;;;0.97;84.33;94599.91;5025439;28;20889;-85
2023/12/21 06:23:32;;;;;;;29.90;15.00;;;;;;;1.70;84.80;94710.94;5040883;28;20029;-83
2023/12/21 06:26:01;;;;;;;31.88;14.82;;;;;;;1.88;84.87;94734.34;5025984;28;20048;-84
2023/12/21 06:28:27;;;;;;;27.67;13.93;;;;;;;1.87;84.35;94749.22;5041544;28;20608;-84
2023/12/21 06:30:55;;;;;;;27.73;14.48;;;;;;;0.10;83.85;94459.91;5042383;28;20048;-86
2023/12/21 06:33:22;;;;;;;29.85;14.50;;;;;;;1.92;83.52;94740.69;5028908;28;20037;-84
2023/12/21 06:35:47;;;;;;;28.77;13.48;;;;;;;-0.20;83.13;94392.22;5041811;28;20553;-87
2023/12/21 06:38:13;;;;;;;27.02;13.95;;;;;;;2.03;82.98;94757.38;5023535;28;20040;-87
2023/12/21 06:40:39;;;;;;;33.70;14.75;;;;;;;0.17;82.75;94439.72;5022618;28;20032;-87
2023/12/21 06:43:11;;;;;;;34.15;14.75;;;;;;;0.50;82.24;94497.34;5026211;28;20076;-87
2023/12/21 06:45:36;;;;;;;24.08;12.60;;;;;;;-2.30;81.65;94071.84;5017715;28;20037;-87
2023/12/21 06:48:11;;;;;;;25.75;13.63;;;;;;;-0.16;82.80;94422.84;5044521;28;20036;-87
2023/12/21 06:50:36;;;;;;;31.38;14.23;;;;;;;1.47;82.29;94643.81;5018522;28;20036;-86
2023/12/21 06:53:02;;;;;;;30.20;14.68;;;;;;;2.15;82.85;94742.44;5010542;28;20029;-86
2023/12/21 06:55:28;;;;;;;34.95;16.05;;;;;;;2.15;82.80;94755.53;5018426;28;20329;-87
2023/12/21 06:57:53;;;;;;;31.13;14.77;;;;;;;2.05;82.07;94745.69;5030882;28;20044;-86
2023/12/21 07:00:19;;;;;;;28.95;13.13;;;;;;;0.55;80.96;94484.41;5020909;28;20036;-87
2023/12/21 07:02:45;;;;;;;27.70;13.10;;;;;;;0.67;81.31;94492.25;5027386;28;20190;-87
2023/12/21 07:05:10;;;;;;;25.63;12.70;;;;;;;1.99;81.35;94704.75;5023998;28;20044;-86
2023/12/21 07:07:37;;;;;;;25.77;13.85;;;;;;;2.30;82.04;94745.38;5024502;28;20036;-86
2023/12/21 07:10:03;;;;;;;21.92;11.32;;;;;;;2.02;81.14;94714.75;5023931;28;20025;-86
2023/12/21 07:12:28;;;;;;;29.20;13.05;;;;;;;2.04;81.18;94725.78;5033039;28;20515;-86
2023/12/21 07:14:54;;;;;;;23.33;12.82;;;;;;;1.87;81.29;94696.13;5004343;28;20048;-83
2023/12/21 07:17:20;;;;;;;25.17;12.52;;;;;;;2.35;81.39;94752.53;5014308;28;20025;-85
2023/12/21 07:19:46;;;;;;;25.23;12.52;;;;;;;2.26;80.77;94781.69;5023952;28;20086;-85
2023/12/21 07:22:11;;;;;;;25.52;12.32;;;;;;;1.33;80.31;94624.97;5033539;28;20029;-84
2023/12/21 07:24:37;;;;;;;23.60;13.20;;;;;;;1.30;81.05;94622.03;5027386;28;20523;-86
2023/12/21 07:27:03;;;;;;;25.90;13.23;;;;;;;1.03;80.06;94579.94;5032899;28;20048;-85
2023/12/21 07:29:29;;;;;;;24.27;13.13;;;;;;;0.01;79.71;94428.16;5020348;28;20097;-85
2023/12/21 07:31:54;;;;;;;22.73;11.80;;;;;;;-0.06;79.52;94422.28;5010705;28;20123;-85
2023/12/21 07:34:20;;;;;;;20.85;11.77;;;;;;;2.22;79.43;94764.84;5039589;28;20585;-86
2023/12/21 07:36:46;;;;;;;24.17;12.18;;;;;;;2.25;79.24;94764.41;5028839;28;20095;-86
2023/12/21 07:39:11;;;;;;;18.77;10.45;;;;;;;-0.57;78.27;94349.94;5036979;28;20049;-86
2023/12/21 07:41:37;;;;;;;25.50;13.02;;;;;;;-0.18;79.03;94392.81;5023590;28;20792;-84
2023/12/21 07:44:03;;;;;;;29.55;12.90;;;;;;;2.00;79.38;94719.41;5007957;28;20044;-85
2023/12/21 07:46:29;;;;;;;24.98;12.52;;;;;;;-0.51;78.53;94330.81;5013609;28;20137;-84
2023/12/21 07:48:55;;;;;;;21.77;9.90;;;;;;;0.28;77.37;94457.22;5024682;28;20111;-84
2023/12/21 07:51:20;;;;;;;23.95;11.85;;;;;;;0.85;77.84;94548.72;5023770;28;21324;-84
2023/12/21 07:53:46;;;;;;;30.70;12.75;;;;;;;0.13;78.03;94451.66;5027353;28;20365;-84
2023/12/21 07:56:11;;;;;;;25.55;11.10;;;;;;;1.41;77.67;94668.25;5012382;28;20273;-84
2023/12/21 07:58:37;;;;;;;23.55;10.90;;;;;;;1.59;77.48;94669.94;5026739;28;20043;-85
2023/12/21 08:01:03;;;;;;;24.90;11.55;;;;;;;2.39;77.48;94798.94;5025191;28;20719;-85
2023/12/21 08:03:34;;;;;;;22.65;11.52;;;;;;;-0.50;77.50;94325.38;5025420;28;20036;-84
2023/12/21 08:05:59;;;;;;;24.95;10.38;;;;;;;0.81;76.85;94540.56;5038078;28;20032;-86
2023/12/21 08:08:25;;;;;;;25.85;11.15;;;;;;;0.58;76.91;94510.06;5036155;28;20094;-86
2023/12/21 08:10:53;;;;;;;22.42;10.32;;;;;;;0.76;76.75;94569.19;5034559;28;20144;-85
2023/12/21 08:13:19;;;;;;;25.48;11.32;;;;;;;-0.51;76.90;94352.44;5025210;28;20090;-85
2023/12/21 08:15:44;;;;;;;23.40;11.15;;;;;;;1.66;77.39;94673.22;5056201;28;20060;-85
2023/12/21 08:18:13;;;;;;;22.50;11.65;;;;;;;1.26;77.00;94608.63;5044163;28;20029;-85
2023/12/21 08:20:41;;;;;;;26.63;12.25;;;;;;;0.07;76.91;94403.03;5053156;28;20042;-87
2023/12/21 08:23:07;;;;;;;25.88;11.63;;;;;;;1.01;76.71;94551.44;5025977;28;20040;-86
2023/12/21 08:25:32;;;;;;;21.33;10.52;;;;;;;0.83;76.31;94509.81;5033807;28;20029;-87
2023/12/21 08:27:59;;;;;;;34.80;11.07;;;;;;;0.56;76.43;94462.50;5046913;28;20053;-86
2023/12/21 08:30:25;;;;;;;26.05;11.48;;;;;;;1.97;76.46;94698.97;5038703;28;20043;-85
2023/12/21 08:32:51;;;;;;;19.63;9.77;;;;;;;0.22;75.26;94404.16;5050879;28;20174;-85
2023/12/21 08:35:17;;;;;;;25.08;10.00;;;;;;;1.84;76.09;94660.78;5036587;28;20107;-85
2023/12/21 08:37:43;;;;;;;19.75;10.10;;;;;;;1.12;75.41;94548.03;5038769;28;20030;-86
2023/12/21 08:42:41;;;;;;;19.48;10.07;;;;;;;2.72;75.27;94790.44;4995653;28;20274;-78
2023/12/21 08:45:07;;;;;;;16.38;9.18;;;;;;;2.75;75.42;94776.84;5002179;28;20042;-81
2023/12/21 08:47:40;;;;;;;17.05;9.73;;;;;;;2.82;75.62;94769.66;4988105;28;20384;-80
2023/12/21 08:50:07;;;;;;;18.75;9.38;;;;;;;2.82;74.83;94753.16;4988627;28;20100;-79
2023/12/21 08:52:33;;;;;;;17.40;8.77;;;;;;;3.02;74.88;94770.00;4985683;28;20060;-80
2023/12/21 08:54:58;;;;;;;22.65;9.55;;;;;;;2.80;74.31;94721.16;4991565;28;20034;-81
2023/12/21 08:57:24;;;;;;;26.88;10.80;;;;;;;3.06;74.74;94728.41;5000809;28;20033;-82
2023/12/21 08:59:51;;;;;;;23.08;10.18;;;;;;;2.74;73.78;94672.38;4986650;28;20271;-82
2023/12/21 09:02:17;;;;;;;16.92;8.93;;;;;;;3.36;73.63;94754.28;4989453;28;20030;-82
2023/12/21 09:04:42;;;;;;;27.13;10.25;;;;;;;3.04;73.23;94701.66;4982212;28;20139;-81
2023/12/21 09:07:08;;;;;;;22.08;9.57;;;;;;;3.22;73.32;94713.72;4987591;28;20088;-81
2023/12/21 09:09:34;;;;;;;17.98;8.60;;;;;;;3.24;71.86;94722.16;4987476;28;20117;-82
2023/12/21 09:12:00;;;;;;;12.75;6.88;;;;;;;3.45;71.88;94750.25;5002704;28;20037;-82
2023/12/21 09:14:25;;;;;;;21.55;7.97;;;;;;;2.85;72.56;94658.38;5003842;28;20419;-82
2023/12/21 09:16:52;;;;;;;16.75;8.05;;;;;;;3.07;72.32;94691.50;5010734;28;20246;-83
2023/12/21 09:19:17;;;;;;;18.98;8.20;;;;;;;3.32;71.71;94730.41;4990481;28;20065;-82
2023/12/21 09:21:43;;;;;;;15.02;8.10;;;;;;;3.18;72.18;94728.34;5000358;28;20441;-82
2023/12/21 09:24:09;;;;;;;14.73;8.13;;;;;;;3.27;72.42;94726.91;4988707;28;20026;-81
2023/12/21 09:26:34;;;;;;;14.88;8.13;;;;;;;2.63;72.28;94624.25;4991932;28;20299;-83
2023/12/21 09:29:04;;;;;;;24.60;7.53;;;;;;;2.96;72.54;94676.66;5007632;28;20041;-82
2023/12/21 09:31:30;;;;;;;16.35;7.70;;;;;;;2.82;72.38;94635.31;4989218;28;20076;-81
2023/12/21 09:33:56;;;;;;;18.35;8.73;;;;;;;3.05;73.12;94638.53;4992605;28;20069;-81
2023/12/21 09:36:25;;;;;;;33.55;10.30;;;;;;;3.58;73.16;94710.63;4990346;28;20359;-83
2023/12/21 09:38:52;;;;;;;20.00;8.48;;;;;;;3.55;72.20;94708.47;4994638;28;20045;-81
2023/12/21 09:41:18;;;;;;;15.20;8.25;;;;;;;3.37;71.93;94653.66;5010703;28;20053;-81
2023/12/21 09:43:47;;;;;;;15.27;7.93;;;;;;;3.65;72.30;94697.31;4990128;28;20048;-83
2023/12/21 09:46:14;;;;;;;16.98;8.90;;;;;;;2.19;72.43;94493.25;5008105;28;20694;-83
2023/12/21 09:48:42;;;;;;;16.33;8.27;;;;;;;3.60;72.42;94716.38;4990305;28;20029;-82
2023/12/21 09:51:10;;;;;;;34.63;9.68;;;;;;;3.44;73.38;94657.69;5006444;28;20033;-82
2023/12/21 09:53:36;;;;;;;20.92;10.40;;;;;;;3.41;73.16;94634.59;5012242;28;20044;-82
2023/12/21 09:56:05;;;;;;;21.58;8.82;;;;;;;3.30;72.85;94595.38;5007589;28;20141;-82
2023/12/21 09:58:32;;;;;;;27.13;8.35;;;;;;;3.85;71.93;94685.25;5012532;28;20551;-83
2023/12/21 10:00:58;;;;;;;20.60;8.60;;;;;;;3.94;71.32;94685.63;4995522;28;20161;-81
2023/12/21 10:03:24;;;;;;;16.95;7.97;;;;;;;3.86;70.61;94655.38;4994736;28;20143;-83
2023/12/21 10:05:49;;;;;;;23.48;9.05;;;;;;;3.40;71.21;94572.72;5002759;28;20080;-83
2023/12/21 10:08:18;;;;;;;29.42;8.25;;;;;;;4.10;71.11;94652.50;4982174;28;20468;-82
2023/12/21 10:10:44;;;;;;;21.10;9.48;;;;;;;4.10;70.92;94653.28;4994744;28;20503;-84
2023/12/21 10:13:11;;;;;;;35.15;8.15;;;;;;;4.02;70.12;94637.19;4978101;28;20481;-83
2023/12/21 10:15:36;;;;;;;15.63;6.90;;;;;;;3.86;70.10;94605.53;5001158;28;20034;-84
2023/12/21 10:18:06;;;;;;;16.80;8.13;;;;;;;4.40;68.83;94594.28;5008626;28;20029;-83
2023/12/21 10:20:31;;;;;;;19.17;7.85;;;;;;;4.69;67.23;94602.66;5008090;28;20041;-83
2023/12/21 10:22:58;;;;;;;19.70;8.18;;;;;;;4.97;67.61;94581.31;4995994;28;20121;-84
2023/12/21 10:25:25;;;;;;;18.00;7.75;;;;;;;5.20;66.24;94578.31;5009359;28;20105;-82
2023/12/21 10:27:55;;;;;;;16.67;7.40;;;;;;;5.11;64.46;94531.75;4994703;28;20345;-82
2023/12/21 10:30:24;;;;;;;13.07;7.18;;;;;;;5.91;63.59;94623.41;4995627;28;20029;-83
2023/12/21 10:32:52;;;;;;;18.15;7.32;;;;;;;5.78;63.00;94563.34;5011305;28;20107;-84
2023/12/21 10:35:18;;;;;;;19.67;7.10;;;;;;;6.01;62.26;94568.19;5006029;28;20034;-82
2023/12/21 10:37:44;;;;;;;13.38;5.95;;;;;;;6.28;61.84;94541.63;5003909;28;20325;-85
2023/12/21 10:40:14;;;;;;;14.48;6.70;;;;;;;6.80;60.74;94580.13;4990918;28;20069;-83
2023/12/21 10:42:46;;;;;;;20.33;6.88;;;;;;;6.76;59.88;94521.09;4988834;28;20138;-83
2023/12/21 10:45:19;;;;;;;12.00;7.20;;;;;;;7.42;58.19;94598.25;5013717;28;20156;-83
2023/12/21 10:47:55;;;;;;;16.02;6.82;;;;;;;7.32;57.76;94583.22;5011251;28;20369;-83
2023/12/21 10:50:21;;;;;;;14.93;7.07;;;;;;;7.08;57.67;94547.16;5015810;28;20034;-81
2023/12/21 10:52:47;;;;;;;18.83;7.43;;;;;;;6.84;58.04;94537.19;5009148;28;20054;-83
2023/12/21 10:55:17;;;;;;;16.10;6.55;;;;;;;6.66;58.33;94471.84;5023474;28;20041;-81
2023/12/21 10:57:45;;;;;;;15.80;6.70;;;;;;;6.95;58.71;94515.00;5003712;28;20041;-80
2023/12/21 11:00:15;;;;;;;13.60;6.78;;;;;;;6.31;58.45;94469.22;5021307;28;20052;-81
2023/12/21 11:02:45;;;;;;;18.55;7.82;;;;;;;6.01;58.74;94433.16;5028951;28;20120;-82
2023/12/21 11:05:19;;;;;;;16.73;8.20;;;;;;;6.52;58.87;94540.09;5017382;28;20026;-81
2023/12/21 11:07:50;;;;;;;12.88;6.35;;;;;;;4.29;59.37;94254.78;5010612;28;20042;-84
2023/12/21 11:10:21;;;;;;;11.65;6.40;;;;;;;6.05;60.46;94537.66;5013003;28;20029;-84
2023/12/21 11:12:47;;;;;;;12.23;5.57;;;;;;;5.85;60.84;94549.94;5007360;28;20041;-85
2023/12/21 11:15:15;;;;;;;17.90;7.07;;;;;;;5.86;61.85;94543.63;5018672;28;20041;-84
2023/12/21 11:17:43;;;;;;;19.75;7.50;;;;;;;5.66;61.70;94502.25;5005522;28;20120;-85
2023/12/21 11:20:14;;;;;;;16.50;6.28;;;;;;;5.79;62.13;94509.69;5001467;28;20090;-83